createdAt,value
2018-09-23T00:01:41.656Z,100737.93
2018-09-23T00:04:15.247Z,100727.87
2018-09-23T00:06:48.924Z,100728.56
2018-09-23T00:09:22.548Z,100732.94
2018-09-23T00:11:56.174Z,100732.47
2018-09-23T00:14:29.754Z,100739.21
2018-09-23T00:17:03.321Z,100739.63
2018-09-23T00:19:37.007Z,100731.57
2018-09-23T00:22:10.682Z,100739.33
2018-09-23T00:24:44.361Z,100733.97
2018-09-23T00:27:17.915Z,100733.08
2018-09-23T00:29:52.373Z,100728.86
2018-09-23T00:32:26.321Z,100721.98
2018-09-23T00:34:59.902Z,100724.13
2018-09-23T00:37:33.507Z,100721.17
2018-09-23T00:40:07.222Z,100725.25
2018-09-23T00:42:40.791Z,100724.13
2018-09-23T00:45:14.498Z,100726.14
2018-09-23T00:47:48.079Z,100723.65
2018-09-23T00:50:21.655Z,100724.45
2018-09-23T00:52:55.212Z,100708.47
2018-09-23T00:55:28.803Z,100707.63
2018-09-23T00:58:02.410Z,100702.72
2018-09-23T01:00:36.052Z,100701.87
2018-09-23T01:03:09.717Z,100694.84
2018-09-23T01:05:43.351Z,100693.05
2018-09-23T01:08:16.918Z,100695.61
2018-09-23T01:10:50.629Z,100693.60
2018-09-23T01:13:24.349Z,100689.16
2018-09-23T01:15:57.939Z,100691.58
2018-09-23T01:18:31.561Z,100681.67
2018-09-23T01:21:05.159Z,100685.36
2018-09-23T01:23:38.768Z,100688.44
2018-09-23T01:26:12.701Z,100690.11
2018-09-23T01:28:46.419Z,100691.01
2018-09-23T01:31:20.017Z,100690.92
2018-09-23T01:33:53.635Z,100697.20
2018-09-23T01:36:27.632Z,100701.18
2018-09-23T01:39:01.196Z,100686.11
2018-09-23T01:41:34.759Z,100684.79
2018-09-23T01:44:08.348Z,100679.66
2018-09-23T01:46:41.896Z,100679.59
2018-09-23T01:49:15.664Z,100677.27
2018-09-23T01:51:49.214Z,100677.19
2018-09-23T01:54:22.793Z,100678.95
2018-09-23T01:56:56.324Z,100681.16
2018-09-23T01:59:29.896Z,100677.86
2018-09-23T02:02:03.450Z,100670.26
2018-09-23T02:04:37.085Z,100657.58
2018-09-23T02:07:10.652Z,100666.20
2018-09-23T02:09:44.236Z,100663.97
2018-09-23T02:12:17.827Z,100666.86
2018-09-23T02:14:51.392Z,100668.49
2018-09-23T02:17:24.967Z,100656.33
2018-09-23T02:19:59.022Z,100657.74
2018-09-23T02:22:32.595Z,100642.18
2018-09-23T02:25:06.326Z,100646.39
2018-09-23T02:27:39.861Z,100648.70
2018-09-23T02:30:13.465Z,100648.59
2018-09-23T02:32:47.022Z,100643.63
2018-09-23T02:35:22.391Z,100652.84
2018-09-23T02:37:56.200Z,100642.22
2018-09-23T02:40:29.790Z,100633.45
2018-09-23T02:43:03.395Z,100651.70
2018-09-23T02:45:36.995Z,100639.97
2018-09-23T02:48:10.625Z,100638.97
2018-09-23T02:50:44.355Z,100639.80
2018-09-23T02:53:17.889Z,100636.34
2018-09-23T02:55:54.318Z,100626.94
2018-09-23T02:58:27.867Z,100628.99
2018-09-23T03:01:01.524Z,100627.13
2018-09-23T03:03:35.102Z,100628.70
2018-09-23T03:06:08.787Z,100628.19
2018-09-23T03:08:42.344Z,100620.90
2018-09-23T03:11:15.963Z,100620.09
2018-09-23T03:13:49.491Z,100623.88
2018-09-23T03:16:23.236Z,100616.59
2018-09-23T03:18:56.807Z,100612.75
2018-09-23T03:21:30.368Z,100613.20
2018-09-23T03:24:04.010Z,100612.68
2018-09-23T03:26:37.694Z,100605.59
2018-09-23T03:29:11.295Z,100603.95
2018-09-23T03:31:45.007Z,100604.89
2018-09-23T03:34:18.612Z,100612.46
2018-09-23T03:36:52.233Z,100603.05
2018-09-23T03:39:25.900Z,100599.72
2018-09-23T03:41:59.487Z,100591.05
2018-09-23T03:44:33.052Z,100588.39
2018-09-23T03:47:06.682Z,100581.97
2018-09-23T03:49:40.308Z,100574.08
2018-09-23T03:52:13.938Z,100575.78
2018-09-23T03:54:47.505Z,100571.80
2018-09-23T03:57:21.100Z,100575.91
2018-09-23T03:59:54.705Z,100574.53
2018-09-23T04:02:28.310Z,100563.36
2018-09-23T04:05:01.863Z,100560.24
2018-09-23T04:07:35.441Z,100569.23
2018-09-23T04:10:09.075Z,100574.72
2018-09-23T04:12:42.681Z,100566.98
2018-09-23T04:15:16.388Z,100566.46
2018-09-23T04:17:49.970Z,100571.21
2018-09-23T04:20:23.552Z,100565.69
2018-09-23T04:22:57.114Z,100562.71
2018-09-23T04:25:30.673Z,100563.81
2018-09-23T04:28:04.244Z,100555.73
2018-09-23T04:30:37.819Z,100558.96
2018-09-23T04:33:11.447Z,100552.55
2018-09-23T04:35:45.012Z,100543.17
2018-09-23T04:38:18.588Z,100551.33
2018-09-23T04:40:52.269Z,100545.08
2018-09-23T04:43:25.818Z,100544.45
2018-09-23T04:45:59.390Z,100540.50
2018-09-23T04:48:32.997Z,100544.79
2018-09-23T04:51:06.624Z,100529.94
2018-09-23T04:53:40.208Z,100532.34
2018-09-23T04:56:13.764Z,100530.95
2018-09-23T04:58:47.429Z,100525.30
2018-09-23T05:01:21.062Z,100526.48
2018-09-23T05:03:54.670Z,100517.95
2018-09-23T05:06:28.602Z,100517.50
2018-09-23T05:09:02.209Z,100513.16
2018-09-23T05:11:35.805Z,100513.61
2018-09-23T05:14:09.511Z,100521.59
2018-09-23T05:16:43.105Z,100511.25
2018-09-23T05:19:16.744Z,100503.55
2018-09-23T05:21:50.384Z,100510.80
2018-09-23T05:24:23.981Z,100517.12
2018-09-23T05:26:57.647Z,100522.47
2018-09-23T05:29:31.241Z,100526.38
2018-09-23T05:32:04.834Z,100530.62
2018-09-23T05:34:38.508Z,100530.06
2018-09-23T05:37:12.096Z,100524.72
2018-09-23T05:39:45.662Z,100515.70
2018-09-23T05:42:19.315Z,100528.53
2018-09-23T05:44:52.940Z,100539.54
2018-09-23T05:47:26.540Z,100529.99
2018-09-23T05:50:00.141Z,100529.44
2018-09-23T05:52:33.751Z,100513.58
2018-09-23T05:55:07.398Z,100513.23
2018-09-23T05:57:40.959Z,100525.52
2018-09-23T06:00:15.260Z,100516.53
2018-09-23T06:02:48.860Z,100513.47
2018-09-23T06:05:22.435Z,100511.63
2018-09-23T06:07:56.026Z,100509.44
2018-09-23T06:10:29.567Z,100517.70
2018-09-23T06:13:03.164Z,100514.34
2018-09-23T06:15:36.846Z,100505.97
2018-09-23T06:18:10.520Z,100506.25
2018-09-23T06:20:44.115Z,100514.75
2018-09-23T06:23:17.713Z,100506.52
2018-09-23T06:25:51.269Z,100510.66
2018-09-23T06:28:24.866Z,100505.67
2018-09-23T06:30:58.445Z,100498.16
2018-09-23T06:33:32.171Z,100507.48
2018-09-23T06:36:05.956Z,100504.70
2018-09-23T06:38:39.553Z,100507.39
2018-09-23T06:41:13.327Z,100502.51
2018-09-23T06:43:46.993Z,100502.13
2018-09-23T06:46:20.557Z,100505.35
2018-09-23T06:48:54.140Z,100498.02
2018-09-23T06:51:27.732Z,100502.97
2018-09-23T06:54:01.315Z,100506.55
2018-09-23T06:56:34.875Z,100505.67
2018-09-23T06:59:08.925Z,100511.31
2018-09-23T07:01:42.514Z,100505.20
2018-09-23T07:04:16.091Z,100505.05
2018-09-23T07:06:49.659Z,100501.58
2018-09-23T07:09:23.250Z,100501.17
2018-09-23T07:11:56.856Z,100508.31
2018-09-23T07:14:30.493Z,100485.48
2018-09-23T07:17:04.131Z,100474.93
2018-09-23T07:19:37.717Z,100474.25
2018-09-23T07:22:11.366Z,100483.25
2018-09-23T07:24:44.965Z,100481.85
2018-09-23T07:27:18.576Z,100485.36
2018-09-23T07:29:52.214Z,100491.29
2018-09-23T07:32:25.775Z,100482.27
2018-09-23T07:34:59.304Z,100485.84
2018-09-23T07:37:32.860Z,100495.36
2018-09-23T07:40:06.558Z,100506.37
2018-09-23T07:42:40.145Z,100503.41
2018-09-23T07:45:13.734Z,100493.31
2018-09-23T07:47:47.276Z,100494.67
2018-09-23T07:50:20.898Z,100489.55
2018-09-23T07:52:54.551Z,100498.61
2018-09-23T07:55:28.175Z,100501.13
2018-09-23T07:58:01.745Z,100493.42
2018-09-23T08:00:35.341Z,100489.95
2018-09-23T08:03:08.935Z,100486.59
2018-09-23T08:05:42.501Z,100473.59
2018-09-23T08:08:16.067Z,100476.00
2018-09-23T08:10:49.767Z,100463.71
2018-09-23T08:13:23.561Z,100460.23
2018-09-23T08:15:57.066Z,100445.66
2018-09-23T08:18:30.919Z,100453.13
2018-09-23T08:21:04.543Z,100459.69
2018-09-23T08:23:38.170Z,100458.88
2018-09-23T08:26:11.770Z,100457.55
2018-09-23T08:28:45.342Z,100444.91
2018-09-23T08:31:18.938Z,100439.41
2018-09-23T08:33:53.648Z,100438.93
2018-09-23T08:36:27.231Z,100439.41
2018-09-23T08:39:00.798Z,100441.13
2018-09-23T08:41:34.405Z,100452.45
2018-09-23T08:44:08.110Z,100448.69
2018-09-23T08:46:41.709Z,100444.88
2018-09-23T08:49:15.289Z,100438.17
2018-09-23T08:51:48.951Z,100440.31
2018-09-23T08:54:22.515Z,100435.59
2018-09-23T08:56:56.107Z,100429.31
2018-09-23T08:59:29.813Z,100437.87
2018-09-23T09:02:03.415Z,100430.45
2018-09-23T09:04:37.014Z,100425.39
2018-09-23T09:07:10.549Z,100423.03
2018-09-23T09:09:44.133Z,100413.98
2018-09-23T09:12:17.790Z,100406.75
2018-09-23T09:14:51.375Z,100397.19
2018-09-23T09:17:24.920Z,100401.15
2018-09-23T09:19:58.493Z,100406.66
2018-09-23T09:22:32.102Z,100404.48
2018-09-23T09:25:05.717Z,100389.91
2018-09-23T09:27:39.281Z,100382.83
2018-09-23T09:30:12.891Z,100377.93
2018-09-23T09:32:46.400Z,100371.69
2018-09-23T09:35:19.991Z,100365.92
2018-09-23T09:37:53.531Z,100353.64
2018-09-23T09:40:27.451Z,100354.16
2018-09-23T09:43:01.042Z,100345.97
2018-09-23T09:45:34.799Z,100336.36
2018-09-23T09:48:09.124Z,100333.68
2018-09-23T09:50:42.801Z,100324.75
2018-09-23T09:53:16.355Z,100326.33
2018-09-23T09:55:49.922Z,100332.91
2018-09-23T09:58:23.439Z,100339.61
2018-09-23T10:00:57.147Z,100341.05
2018-09-23T10:03:30.760Z,100341.30
2018-09-23T10:06:04.368Z,100331.98
2018-09-23T10:08:38.049Z,100334.92
2018-09-23T10:11:11.753Z,100332.13
2018-09-23T10:13:45.599Z,100324.23
2018-09-23T10:16:19.217Z,100319.02
2018-09-23T10:18:55.974Z,100323.16
2018-09-23T10:21:30.254Z,100308.92
2018-09-23T10:24:05.057Z,100302.34
2018-09-23T10:26:39.067Z,100288.66
2018-09-23T10:29:13.265Z,100286.47
2018-09-23T10:31:47.335Z,100292.01
2018-09-23T10:34:20.976Z,100295.45
2018-09-23T10:36:54.711Z,100292.20
2018-09-23T10:39:28.943Z,100297.03
2018-09-23T10:42:03.265Z,100303.37
2018-09-23T10:44:36.807Z,100317.44
2018-09-23T10:47:10.490Z,100335.69
2018-09-23T10:49:44.077Z,100341.27
2018-09-23T10:52:17.743Z,100322.59
2018-09-23T10:54:51.705Z,100311.73
2018-09-23T10:57:25.306Z,100314.48
2018-09-23T11:00:00.519Z,100307.19
2018-09-23T11:02:34.092Z,100300.69
2018-09-23T11:05:08.275Z,100295.06
2018-09-23T11:07:41.843Z,100275.94
2018-09-23T11:10:15.526Z,100280.13
2018-09-23T11:12:49.198Z,100285.78
2018-09-23T11:15:24.092Z,100284.48
2018-09-23T11:17:57.937Z,100275.86
2018-09-23T11:20:31.718Z,100251.58
2018-09-23T11:23:07.317Z,100252.95
2018-09-23T11:25:40.895Z,100265.45
2018-09-23T11:28:14.762Z,100266.83
2018-09-23T11:30:49.331Z,100264.03
2018-09-23T11:33:22.960Z,100249.55
2018-09-23T11:35:56.642Z,100228.39
2018-09-23T11:38:30.232Z,100223.86
2018-09-23T11:41:09.015Z,100219.70
2018-09-23T11:43:42.898Z,100212.78
2018-09-23T11:46:16.459Z,100238.32
2018-09-23T11:48:50.096Z,100231.34
2018-09-23T11:51:23.670Z,100220.95
2018-09-23T11:53:57.240Z,100218.52
2018-09-23T11:56:30.785Z,100221.16
2018-09-23T11:59:04.491Z,100213.66
2018-09-23T12:01:37.997Z,100199.58
2018-09-23T12:04:11.615Z,100213.06
2018-09-23T12:06:45.159Z,100211.68
2018-09-23T12:09:18.842Z,100209.39
2018-09-23T12:11:52.543Z,100215.70
2018-09-23T12:14:26.037Z,100212.63
2018-09-23T12:17:00.668Z,100200.95
2018-09-23T12:19:34.211Z,100187.61
2018-09-23T12:22:07.787Z,100183.43
2018-09-23T12:24:41.337Z,100198.58
2018-09-23T12:27:14.906Z,100210.98
2018-09-23T12:29:48.553Z,100211.44
2018-09-23T12:32:22.143Z,100214.25
2018-09-23T12:34:55.678Z,100190.55
2018-09-23T12:37:29.231Z,100164.37
2018-09-23T12:40:02.839Z,100144.78
2018-09-23T12:42:36.369Z,100136.83
2018-09-23T12:45:10.936Z,100129.44
2018-09-23T12:47:44.705Z,100127.00
2018-09-23T12:50:18.350Z,100121.47
2018-09-23T12:52:52.010Z,100122.62
2018-09-23T12:55:25.572Z,100141.13
2018-09-23T12:58:00.255Z,100158.02
2018-09-23T13:00:33.796Z,100162.46
2018-09-23T13:03:07.418Z,100137.69
2018-09-23T13:05:41.015Z,100120.53
2018-09-23T13:08:14.576Z,100095.89
2018-09-23T13:10:48.175Z,100080.31
2018-09-23T13:13:21.766Z,100080.48
2018-09-23T13:15:55.365Z,100100.97
2018-09-23T13:18:29.058Z,100135.98
2018-09-23T13:21:02.690Z,100149.13
2018-09-23T13:23:36.260Z,100113.78
2018-09-23T13:26:09.811Z,100098.50
2018-09-23T13:28:43.447Z,100103.25
2018-09-23T13:31:17.258Z,100066.05
2018-09-23T13:33:50.866Z,100033.97
2018-09-23T13:36:24.467Z,100030.63
2018-09-23T13:38:58.050Z,100000.37
2018-09-23T13:41:31.591Z,100021.89
2018-09-23T13:44:05.188Z,100065.82
2018-09-23T13:46:38.889Z,100074.09
2018-09-23T13:49:12.476Z,100096.01
2018-09-23T13:51:46.021Z,100096.42
2018-09-23T13:54:19.687Z,100082.80
2018-09-23T13:56:53.234Z,100058.36
2018-09-23T13:59:26.812Z,100065.75
2018-09-23T14:02:00.522Z,100071.45
2018-09-23T14:04:34.099Z,100070.48
2018-09-23T14:07:07.724Z,100077.36
2018-09-23T14:09:41.324Z,100054.53
2018-09-23T14:12:14.948Z,100047.63
2018-09-23T14:14:48.504Z,100016.46
2018-09-23T14:17:22.097Z,100015.67
2018-09-23T14:19:56.259Z,100000.36
2018-09-23T14:22:29.911Z,100000.28
2018-09-23T14:25:03.502Z,100045.25
2018-09-23T14:27:37.063Z,100069.74
2018-09-23T14:30:10.655Z,100052.93
2018-09-23T14:32:44.210Z,100025.41
2018-09-23T14:35:17.818Z,100050.72
2018-09-23T14:37:51.367Z,100041.41
2018-09-23T14:40:24.926Z,100027.88
2018-09-23T14:42:58.556Z,100041.15
2018-09-23T14:45:32.150Z,100039.12
2018-09-23T14:48:05.795Z,100034.11
2018-09-23T14:50:39.415Z,100042.56
2018-09-23T14:53:12.976Z,100080.80
2018-09-23T14:55:46.620Z,100060.81
2018-09-23T14:58:20.233Z,100017.42
2018-09-23T15:00:54.068Z,100034.95
2018-09-23T15:03:27.702Z,100024.81
2018-09-23T15:06:01.284Z,100070.95
2018-09-23T15:08:34.857Z,100069.66
2018-09-23T15:11:08.447Z,100100.83
2018-09-23T15:13:42.029Z,100123.27
2018-09-23T15:16:15.627Z,100051.34
2018-09-23T15:18:49.203Z,100039.81
2018-09-23T15:21:22.773Z,100043.92
2018-09-23T15:23:56.357Z,100005.73
2018-09-23T15:26:29.951Z,100001.40
2018-09-23T15:29:03.571Z,100035.17
2018-09-23T15:31:37.170Z,100032.54
2018-09-23T15:34:10.773Z,100055.88
2018-09-23T15:36:44.391Z,100044.34
2018-09-23T15:39:18.027Z,100037.81
2018-09-23T15:41:51.603Z,100038.60
2018-09-23T15:44:25.288Z,100052.37
2018-09-23T15:46:58.861Z,100052.74
2018-09-23T15:49:32.476Z,100049.35
2018-09-23T15:52:06.176Z,100049.47
2018-09-23T15:54:39.770Z,100056.52
2018-09-23T15:57:13.355Z,100066.95
2018-09-23T15:59:46.929Z,100071.81
2018-09-23T16:02:20.494Z,100079.27
2018-09-23T16:04:54.057Z,100053.48
2018-09-23T16:07:27.681Z,100057.55
2018-09-23T16:10:04.328Z,100055.17
2018-09-23T16:12:37.936Z,100066.47
2018-09-23T16:15:11.599Z,100065.40
2018-09-23T16:17:45.188Z,100067.66
2018-09-23T16:20:18.807Z,100072.81
2018-09-23T16:22:52.413Z,100072.16
2018-09-23T16:25:26.010Z,100076.45
2018-09-23T16:27:59.604Z,100084.23
2018-09-23T16:30:33.194Z,100090.36
2018-09-23T16:33:06.778Z,100093.06
2018-09-23T16:35:40.372Z,100100.84
2018-09-23T16:38:13.927Z,100107.59
2018-09-23T16:40:47.510Z,100105.00
2018-09-23T16:43:21.139Z,100115.28
2018-09-23T16:45:54.724Z,100119.19
2018-09-23T16:48:28.361Z,100123.80
2018-09-23T16:51:01.936Z,100119.57
2018-09-23T16:53:35.496Z,100129.02
2018-09-23T16:56:09.082Z,100134.48
2018-09-23T16:58:42.634Z,100136.11
2018-09-23T17:01:16.214Z,100139.50
2018-09-23T17:03:49.796Z,100143.80
2018-09-23T17:06:23.628Z,100144.45
2018-09-23T17:08:57.254Z,100143.97
2018-09-23T17:11:30.870Z,100143.24
2018-09-23T17:14:05.153Z,100163.00
2018-09-23T17:16:39.913Z,100164.62
2018-09-23T17:19:14.347Z,100171.48
2018-09-23T17:21:48.458Z,100175.26
2018-09-23T17:24:22.673Z,100183.00
2018-09-23T17:26:56.728Z,100195.30
2018-09-23T17:29:30.955Z,100193.73
2018-09-23T17:32:05.163Z,100202.21
2018-09-23T17:34:39.186Z,100209.48
2018-09-23T17:37:13.226Z,100223.08
2018-09-23T17:39:47.418Z,100225.64
2018-09-23T17:42:21.322Z,100232.43
2018-09-23T17:44:55.338Z,100238.83
2018-09-23T17:47:29.471Z,100237.10
2018-09-23T17:50:03.725Z,100237.55
2018-09-23T17:52:38.137Z,100241.77
2018-09-23T17:55:12.176Z,100239.03
2018-09-23T17:57:46.388Z,100244.56
2018-09-23T18:00:20.384Z,100251.64
2018-09-23T18:02:54.603Z,100262.17
2018-09-23T18:05:28.689Z,100272.00
2018-09-23T18:08:02.832Z,100286.11
2018-09-23T18:10:36.924Z,100300.84
2018-09-23T18:13:11.037Z,100300.07
2018-09-23T18:15:45.035Z,100307.87
2018-09-23T18:18:19.843Z,100305.28
2018-09-23T18:20:54.541Z,100313.51
2018-09-23T18:23:28.682Z,100310.79
2018-09-23T18:26:02.760Z,100318.50
2018-09-23T18:28:36.861Z,100324.52
2018-09-23T18:31:11.015Z,100334.02
2018-09-23T18:33:44.932Z,100336.58
2018-09-23T18:36:19.115Z,100342.15
2018-09-23T18:38:53.051Z,100346.83
2018-09-23T18:41:28.330Z,100354.56
2018-09-23T18:44:02.543Z,100355.42
2018-09-23T18:46:38.438Z,100370.61
2018-09-23T18:49:12.542Z,100373.68
2018-09-23T18:51:46.651Z,100377.91
2018-09-23T18:55:24.488Z,100378.30
2018-09-23T18:57:58.705Z,100376.23
2018-09-23T19:00:32.768Z,100375.82
2018-09-23T19:03:06.792Z,100378.80
2018-09-23T19:05:40.836Z,100381.66
2018-09-23T19:08:15.159Z,100385.98
2018-09-23T19:10:49.184Z,100399.37
2018-09-23T19:13:28.317Z,100413.99
2018-09-23T19:16:07.166Z,100415.59
2018-09-23T19:18:41.304Z,100412.34
2018-09-23T19:21:16.177Z,100423.95
2018-09-23T19:23:50.181Z,100423.18
2018-09-23T19:26:24.430Z,100430.05
2018-09-23T19:28:58.892Z,100439.45
2018-09-23T19:31:32.894Z,100436.84
2018-09-23T19:34:07.144Z,100440.46
2018-09-23T19:36:41.244Z,100443.83
2018-09-23T19:39:15.474Z,100454.84
2018-09-23T19:41:49.546Z,100459.10
2018-09-23T19:44:23.643Z,100471.37
2018-09-23T19:46:58.231Z,100478.63
2018-09-23T19:49:32.152Z,100487.42
2018-09-23T19:52:06.210Z,100484.81
2018-09-23T19:54:40.369Z,100493.77
2018-09-23T19:57:14.510Z,100496.41
2018-09-23T19:59:48.458Z,100504.95
2018-09-23T20:02:22.522Z,100512.71
2018-09-23T20:04:56.660Z,100530.31
2018-09-23T20:07:30.803Z,100531.94
2018-09-23T20:10:04.927Z,100532.53
2018-09-23T20:12:39.098Z,100553.21
2018-09-23T20:15:15.003Z,100557.49
2018-09-23T20:17:49.191Z,100560.50
2018-09-23T20:20:23.809Z,100565.47
2018-09-23T20:22:58.087Z,100567.97
2018-09-23T20:25:32.074Z,100571.94
2018-09-23T20:28:06.439Z,100580.39
2018-09-23T20:30:40.360Z,100589.80
2018-09-23T20:33:14.572Z,100594.32
2018-09-23T20:35:48.544Z,100596.25
2018-09-23T20:38:22.655Z,100599.79
2018-09-23T20:40:56.845Z,100606.63
2018-09-23T20:43:30.962Z,100612.23
2018-09-23T20:46:04.989Z,100617.48
2018-09-23T20:48:39.137Z,100615.88
2018-09-23T20:51:13.403Z,100630.45
2018-09-23T20:53:47.732Z,100631.68
2018-09-23T20:56:22.142Z,100652.20
2018-09-23T20:58:56.312Z,100647.47
2018-09-23T21:01:31.088Z,100652.33
2018-09-23T21:04:06.141Z,100656.74
2018-09-23T21:06:40.929Z,100662.36
2018-09-23T21:09:15.536Z,100664.94
2018-09-23T21:11:50.293Z,100663.00
2018-09-23T21:14:26.060Z,100668.68
2018-09-23T21:17:01.394Z,100681.13
2018-09-23T21:19:36.688Z,100684.52
2018-09-23T21:22:12.044Z,100684.17
2018-09-23T21:24:47.358Z,100692.30
2018-09-23T21:27:23.283Z,100696.53
2018-09-23T21:29:58.177Z,100708.98
2018-09-23T21:32:33.178Z,100715.83
2018-09-23T21:35:08.867Z,100724.38
2018-09-23T21:37:43.858Z,100731.61
2018-09-23T21:40:17.457Z,100730.77
2018-09-23T21:42:51.117Z,100741.05
2018-09-23T21:45:24.690Z,100749.76
2018-09-23T21:47:58.241Z,100740.26
2018-09-23T21:50:31.802Z,100744.25
2018-09-23T21:53:06.597Z,100751.44
2018-09-23T21:55:41.377Z,100749.76
2018-09-23T21:58:16.168Z,100757.87
2018-09-23T22:00:51.200Z,100764.21
2018-09-23T22:03:24.963Z,100769.86
2018-09-23T22:05:59.835Z,100774.92
2018-09-23T22:08:35.257Z,100773.36
2018-09-23T22:11:11.053Z,100782.30
2018-09-23T22:13:45.850Z,100784.76
2018-09-23T22:16:22.633Z,100787.42
2018-09-23T22:18:58.022Z,100791.78
2018-09-23T22:21:32.967Z,100803.69
2018-09-23T22:24:07.970Z,100810.47
2018-09-23T22:26:42.919Z,100810.42
2018-09-23T22:29:17.599Z,100816.72
2018-09-23T22:31:52.269Z,100824.52
2018-09-23T22:34:27.668Z,100841.03
2018-09-23T22:37:02.682Z,100873.55
2018-09-23T22:39:37.553Z,100825.66
2018-09-23T22:42:12.497Z,100840.94
2018-09-23T22:44:47.363Z,100841.78
2018-09-23T22:47:21.994Z,100842.21
2018-09-23T22:49:57.049Z,100848.07
2018-09-23T22:52:35.677Z,100857.84
2018-09-23T22:55:11.378Z,100871.47
2018-09-23T22:57:47.067Z,100874.81
2018-09-23T23:00:22.225Z,100876.48
2018-09-23T23:02:56.499Z,100879.57
2018-09-23T23:05:31.345Z,100880.90
2018-09-23T23:08:06.008Z,100888.53
2018-09-23T23:10:40.890Z,100890.38
2018-09-23T23:13:15.740Z,100895.23
2018-09-23T23:15:52.065Z,100887.22
2018-09-23T23:18:27.620Z,100895.77
2018-09-23T23:21:03.904Z,100904.31
2018-09-23T23:23:39.849Z,100904.31
2018-09-23T23:26:14.698Z,100901.84
2018-09-23T23:28:49.464Z,100912.47
2018-09-23T23:31:25.109Z,100912.98
2018-09-23T23:33:59.878Z,100938.13
2018-09-23T23:36:34.652Z,100935.46
2018-09-23T23:39:11.072Z,100935.09
2018-09-23T23:41:46.000Z,100931.27
2018-09-23T23:44:21.574Z,100944.96
2018-09-23T23:46:56.495Z,100939.53
2018-09-23T23:49:31.552Z,100941.25
2018-09-23T23:52:06.359Z,100951.06
2018-09-23T23:54:41.666Z,100952.38
2018-09-23T23:57:16.648Z,100961.80
2018-09-23T23:59:51.541Z,100974.20
